sensor_id;sensor_type;location;lat;lon;timestamp;temperature;humidity
10304;DHT22;5197;48.152;8.590;2023-08-31T00:02:04;12.90;16.80
10304;DHT22;5197;48.152;8.590;2023-08-31T00:04:32;12.90;17.00
10304;DHT22;5197;48.152;8.590;2023-08-31T00:06:59;12.90;17.00
10304;DHT22;5197;48.152;8.590;2023-08-31T00:09:26;12.90;17.00
10304;DHT22;5197;48.152;8.590;2023-08-31T00:11:53;12.90;17.00
10304;DHT22;5197;48.152;8.590;2023-08-31T00:14:22;12.90;17.00
10304;DHT22;5197;48.152;8.590;2023-08-31T00:16:49;12.90;17.10
10304;DHT22;5197;48.152;8.590;2023-08-31T00:19:17;12.90;17.10
10304;DHT22;5197;48.152;8.590;2023-08-31T00:21:44;12.90;17.40
10304;DHT22;5197;48.152;8.590;2023-08-31T00:24:11;12.90;17.40
10304;DHT22;5197;48.152;8.590;2023-08-31T00:26:38;12.90;17.40
10304;DHT22;5197;48.152;8.590;2023-08-31T00:29:10;12.90;17.50
10304;DHT22;5197;48.152;8.590;2023-08-31T00:31:41;12.90;17.50
10304;DHT22;5197;48.152;8.590;2023-08-31T00:34:09;12.80;17.50
10304;DHT22;5197;48.152;8.590;2023-08-31T00:36:44;12.80;17.60
10304;DHT22;5197;48.152;8.590;2023-08-31T00:39:11;12.80;17.70
10304;DHT22;5197;48.152;8.590;2023-08-31T00:41:38;12.80;17.70
10304;DHT22;5197;48.152;8.590;2023-08-31T00:44:06;12.70;17.70
10304;DHT22;5197;48.152;8.590;2023-08-31T00:46:34;12.70;17.90
10304;DHT22;5197;48.152;8.590;2023-08-31T00:49:02;12.70;18.00
10304;DHT22;5197;48.152;8.590;2023-08-31T00:51:31;12.70;18.20
10304;DHT22;5197;48.152;8.590;2023-08-31T00:53:58;12.60;17.90
10304;DHT22;5197;48.152;8.590;2023-08-31T00:56:26;12.60;18.10
10304;DHT22;5197;48.152;8.590;2023-08-31T00:58:53;12.50;18.50
10304;DHT22;5197;48.152;8.590;2023-08-31T01:01:43;12.50;18.60
10304;DHT22;5197;48.152;8.590;2023-08-31T01:04:35;12.50;18.50
10304;DHT22;5197;48.152;8.590;2023-08-31T01:12:41;12.50;18.50
10304;DHT22;5197;48.152;8.590;2023-08-31T01:15:12;12.40;18.10
10304;DHT22;5197;48.152;8.590;2023-08-31T01:17:44;12.30;18.20
10304;DHT22;5197;48.152;8.590;2023-08-31T01:20:17;12.30;17.90
10304;DHT22;5197;48.152;8.590;2023-08-31T01:22:57;12.30;17.90
10304;DHT22;5197;48.152;8.590;2023-08-31T01:25:26;12.20;17.50
10304;DHT22;5197;48.152;8.590;2023-08-31T01:27:53;12.00;18.20
10304;DHT22;5197;48.152;8.590;2023-08-31T01:30:21;12.00;18.60
10304;DHT22;5197;48.152;8.590;2023-08-31T01:32:49;12.00;18.80
10304;DHT22;5197;48.152;8.590;2023-08-31T01:35:17;11.90;20.00
10304;DHT22;5197;48.152;8.590;2023-08-31T01:37:54;11.90;19.40
10304;DHT22;5197;48.152;8.590;2023-08-31T01:40:36;11.90;19.40
10304;DHT22;5197;48.152;8.590;2023-08-31T01:43:06;11.90;19.60
10304;DHT22;5197;48.152;8.590;2023-08-31T01:45:35;11.90;19.90
10304;DHT22;5197;48.152;8.590;2023-08-31T01:48:02;11.90;19.70
10304;DHT22;5197;48.152;8.590;2023-08-31T01:50:30;11.90;19.60
10304;DHT22;5197;48.152;8.590;2023-08-31T01:52:57;11.90;19.40
10304;DHT22;5197;48.152;8.590;2023-08-31T01:55:24;11.80;19.50
10304;DHT22;5197;48.152;8.590;2023-08-31T01:57:51;11.80;19.70
10304;DHT22;5197;48.152;8.590;2023-08-31T02:00:19;11.80;19.70
10304;DHT22;5197;48.152;8.590;2023-08-31T02:02:47;11.80;19.60
10304;DHT22;5197;48.152;8.590;2023-08-31T02:05:15;11.70;19.60
10304;DHT22;5197;48.152;8.590;2023-08-31T02:07:42;11.70;19.50
10304;DHT22;5197;48.152;8.590;2023-08-31T02:10:10;11.70;19.40
10304;DHT22;5197;48.152;8.590;2023-08-31T02:12:37;11.20;18.60
10304;DHT22;5197;48.152;8.590;2023-08-31T02:15:05;11.50;18.90
10304;DHT22;5197;48.152;8.590;2023-08-31T02:17:36;11.40;19.40
10304;DHT22;5197;48.152;8.590;2023-08-31T02:20:04;11.40;19.70
10304;DHT22;5197;48.152;8.590;2023-08-31T02:22:34;11.50;19.80
10304;DHT22;5197;48.152;8.590;2023-08-31T02:25:02;11.50;19.80
10304;DHT22;5197;48.152;8.590;2023-08-31T02:27:29;11.50;20.10
10304;DHT22;5197;48.152;8.590;2023-08-31T02:29:56;11.50;20.10
10304;DHT22;5197;48.152;8.590;2023-08-31T02:32:24;12.70;20.80
10304;DHT22;5197;48.152;8.590;2023-08-31T02:34:51;11.60;20.40
10304;DHT22;5197;48.152;8.590;2023-08-31T02:37:18;11.60;20.70
10304;DHT22;5197;48.152;8.590;2023-08-31T02:39:45;11.60;21.10
10304;DHT22;5197;48.152;8.590;2023-08-31T02:42:14;11.70;21.80
10304;DHT22;5197;48.152;8.590;2023-08-31T02:44:41;11.70;21.90
10304;DHT22;5197;48.152;8.590;2023-08-31T02:47:08;11.70;22.00
10304;DHT22;5197;48.152;8.590;2023-08-31T02:49:35;11.70;21.90
10304;DHT22;5197;48.152;8.590;2023-08-31T02:52:02;11.70;22.00
10304;DHT22;5197;48.152;8.590;2023-08-31T02:54:29;11.80;22.00
10304;DHT22;5197;48.152;8.590;2023-08-31T02:56:56;11.70;21.90
10304;DHT22;5197;48.152;8.590;2023-08-31T02:59:23;11.80;22.10
10304;DHT22;5197;48.152;8.590;2023-08-31T03:01:50;11.80;22.10
10304;DHT22;5197;48.152;8.590;2023-08-31T03:04:18;11.70;22.10
10304;DHT22;5197;48.152;8.590;2023-08-31T03:06:45;11.70;21.90
10304;DHT22;5197;48.152;8.590;2023-08-31T03:09:12;11.70;21.90
10304;DHT22;5197;48.152;8.590;2023-08-31T03:11:40;11.60;21.90
10304;DHT22;5197;48.152;8.590;2023-08-31T03:14:07;11.60;22.00
10304;DHT22;5197;48.152;8.590;2023-08-31T03:16:36;11.60;21.90
10304;DHT22;5197;48.152;8.590;2023-08-31T03:19:03;11.60;21.90
10304;DHT22;5197;48.152;8.590;2023-08-31T03:21:31;11.50;22.80
10304;DHT22;5197;48.152;8.590;2023-08-31T03:23:58;11.50;21.90
10304;DHT22;5197;48.152;8.590;2023-08-31T03:26:25;11.50;21.80
10304;DHT22;5197;48.152;8.590;2023-08-31T03:28:52;11.50;21.90
10304;DHT22;5197;48.152;8.590;2023-08-31T03:31:19;11.50;21.80
10304;DHT22;5197;48.152;8.590;2023-08-31T03:33:46;11.50;21.90
10304;DHT22;5197;48.152;8.590;2023-08-31T03:36:13;11.50;21.90
10304;DHT22;5197;48.152;8.590;2023-08-31T03:38:40;11.50;21.90
10304;DHT22;5197;48.152;8.590;2023-08-31T03:41:07;11.50;21.80
10304;DHT22;5197;48.152;8.590;2023-08-31T03:43:35;11.50;21.90
10304;DHT22;5197;48.152;8.590;2023-08-31T03:46:02;11.50;21.90
10304;DHT22;5197;48.152;8.590;2023-08-31T03:48:29;11.50;21.90
10304;DHT22;5197;48.152;8.590;2023-08-31T03:50:56;11.50;21.80
10304;DHT22;5197;48.152;8.590;2023-08-31T03:53:23;11.50;21.90
10304;DHT22;5197;48.152;8.590;2023-08-31T03:55:51;11.50;21.80
10304;DHT22;5197;48.152;8.590;2023-08-31T03:58:18;11.50;21.90
10304;DHT22;5197;48.152;8.590;2023-08-31T04:00:49;11.40;21.70
10304;DHT22;5197;48.152;8.590;2023-08-31T04:03:16;11.40;21.70
10304;DHT22;5197;48.152;8.590;2023-08-31T04:05:43;11.40;21.80
10304;DHT22;5197;48.152;8.590;2023-08-31T04:08:10;11.40;21.90
10304;DHT22;5197;48.152;8.590;2023-08-31T04:10:37;11.50;21.90
10304;DHT22;5197;48.152;8.590;2023-08-31T04:13:04;11.50;21.90
10304;DHT22;5197;48.152;8.590;2023-08-31T04:15:32;11.50;21.90
10304;DHT22;5197;48.152;8.590;2023-08-31T04:17:59;11.50;21.80
10304;DHT22;5197;48.152;8.590;2023-08-31T04:20:26;11.50;21.90
10304;DHT22;5197;48.152;8.590;2023-08-31T04:22:53;11.50;21.90
10304;DHT22;5197;48.152;8.590;2023-08-31T04:25:20;11.50;21.90
10304;DHT22;5197;48.152;8.590;2023-08-31T04:27:47;11.50;21.90
10304;DHT22;5197;48.152;8.590;2023-08-31T04:30:14;11.50;21.90
10304;DHT22;5197;48.152;8.590;2023-08-31T04:32:43;11.50;21.90
10304;DHT22;5197;48.152;8.590;2023-08-31T04:35:11;11.40;21.90
10304;DHT22;5197;48.152;8.590;2023-08-31T04:37:38;11.30;22.70
10304;DHT22;5197;48.152;8.590;2023-08-31T04:40:05;11.30;23.30
10304;DHT22;5197;48.152;8.590;2023-08-31T04:42:33;11.40;23.40
10304;DHT22;5197;48.152;8.590;2023-08-31T04:45:01;11.40;23.50
10304;DHT22;5197;48.152;8.590;2023-08-31T04:47:28;11.40;23.50
10304;DHT22;5197;48.152;8.590;2023-08-31T04:49:55;11.40;23.50
10304;DHT22;5197;48.152;8.590;2023-08-31T04:52:22;11.40;23.50
10304;DHT22;5197;48.152;8.590;2023-08-31T04:54:50;11.40;23.30
10304;DHT22;5197;48.152;8.590;2023-08-31T04:57:17;11.40;23.10
10304;DHT22;5197;48.152;8.590;2023-08-31T04:59:43;11.40;23.50
10304;DHT22;5197;48.152;8.590;2023-08-31T05:02:10;11.30;23.10
10304;DHT22;5197;48.152;8.590;2023-08-31T05:04:37;11.30;23.30
10304;DHT22;5197;48.152;8.590;2023-08-31T05:07:05;11.30;23.50
10304;DHT22;5197;48.152;8.590;2023-08-31T05:09:32;11.30;23.80
10304;DHT22;5197;48.152;8.590;2023-08-31T05:12:02;11.30;24.00
10304;DHT22;5197;48.152;8.590;2023-08-31T05:14:30;11.30;24.10
10304;DHT22;5197;48.152;8.590;2023-08-31T05:16:57;11.30;24.00
10304;DHT22;5197;48.152;8.590;2023-08-31T05:19:24;11.30;24.10
10304;DHT22;5197;48.152;8.590;2023-08-31T05:21:53;11.40;24.30
10304;DHT22;5197;48.152;8.590;2023-08-31T05:24:20;11.30;24.50
10304;DHT22;5197;48.152;8.590;2023-08-31T05:26:48;11.30;24.60
10304;DHT22;5197;48.152;8.590;2023-08-31T05:29:15;11.40;24.60
10304;DHT22;5197;48.152;8.590;2023-08-31T05:31:46;11.40;24.90
10304;DHT22;5197;48.152;8.590;2023-08-31T05:34:20;11.40;24.90
10304;DHT22;5197;48.152;8.590;2023-08-31T05:36:47;11.40;24.80
10304;DHT22;5197;48.152;8.590;2023-08-31T05:39:14;11.40;25.10
10304;DHT22;5197;48.152;8.590;2023-08-31T05:41:43;11.40;25.20
10304;DHT22;5197;48.152;8.590;2023-08-31T05:44:11;11.50;25.40
10304;DHT22;5197;48.152;8.590;2023-08-31T05:46:38;11.50;25.60
10304;DHT22;5197;48.152;8.590;2023-08-31T05:49:06;11.60;25.90
10304;DHT22;5197;48.152;8.590;2023-08-31T05:51:34;11.60;26.00
10304;DHT22;5197;48.152;8.590;2023-08-31T05:54:02;11.70;25.80
10304;DHT22;5197;48.152;8.590;2023-08-31T05:56:30;11.70;25.80
10304;DHT22;5197;48.152;8.590;2023-08-31T05:58:57;11.70;25.80
10304;DHT22;5197;48.152;8.590;2023-08-31T06:01:24;11.80;26.20
10304;DHT22;5197;48.152;8.590;2023-08-31T06:03:52;11.80;25.90
10304;DHT22;5197;48.152;8.590;2023-08-31T06:06:19;11.90;25.80
10304;DHT22;5197;48.152;8.590;2023-08-31T06:08:46;11.90;25.60
10304;DHT22;5197;48.152;8.590;2023-08-31T06:11:13;12.00;25.80
10304;DHT22;5197;48.152;8.590;2023-08-31T06:13:40;12.10;25.80
10304;DHT22;5197;48.152;8.590;2023-08-31T06:16:08;12.10;25.70
10304;DHT22;5197;48.152;8.590;2023-08-31T06:18:35;12.20;25.70
10304;DHT22;5197;48.152;8.590;2023-08-31T06:21:02;12.20;25.50
10304;DHT22;5197;48.152;8.590;2023-08-31T06:23:29;12.20;25.50
10304;DHT22;5197;48.152;8.590;2023-08-31T06:25:56;12.30;25.60
10304;DHT22;5197;48.152;8.590;2023-08-31T06:28:23;12.30;25.50
10304;DHT22;5197;48.152;8.590;2023-08-31T06:30:50;12.40;25.20
10304;DHT22;5197;48.152;8.590;2023-08-31T06:33:18;12.40;25.00
10304;DHT22;5197;48.152;8.590;2023-08-31T06:35:47;12.50;24.90
10304;DHT22;5197;48.152;8.590;2023-08-31T06:38:19;12.60;24.80
10304;DHT22;5197;48.152;8.590;2023-08-31T06:40:47;12.60;24.60
10304;DHT22;5197;48.152;8.590;2023-08-31T06:43:14;12.60;24.40
10304;DHT22;5197;48.152;8.590;2023-08-31T06:45:41;12.70;24.60
10304;DHT22;5197;48.152;8.590;2023-08-31T06:48:09;12.80;27.60
10304;DHT22;5197;48.152;8.590;2023-08-31T06:50:36;13.10;31.00
10304;DHT22;5197;48.152;8.590;2023-08-31T06:53:03;13.50;32.60
10304;DHT22;5197;48.152;8.590;2023-08-31T06:55:31;13.90;34.60
10304;DHT22;5197;48.152;8.590;2023-08-31T06:58:00;14.30;33.00
10304;DHT22;5197;48.152;8.590;2023-08-31T07:00:27;14.60;30.40
10304;DHT22;5197;48.152;8.590;2023-08-31T07:02:55;14.70;24.20
10304;DHT22;5197;48.152;8.590;2023-08-31T07:05:25;14.80;24.30
10304;DHT22;5197;48.152;8.590;2023-08-31T07:07:53;14.80;24.00
10304;DHT22;5197;48.152;8.590;2023-08-31T07:10:21;14.80;22.00
10304;DHT22;5197;48.152;8.590;2023-08-31T07:12:48;14.70;20.60
10304;DHT22;5197;48.152;8.590;2023-08-31T07:15:16;14.60;18.50
10304;DHT22;5197;48.152;8.590;2023-08-31T07:17:43;14.50;18.00
10304;DHT22;5197;48.152;8.590;2023-08-31T07:20:12;14.40;17.40
10304;DHT22;5197;48.152;8.590;2023-08-31T07:22:39;14.30;17.20
10304;DHT22;5197;48.152;8.590;2023-08-31T07:25:07;14.30;17.50
10304;DHT22;5197;48.152;8.590;2023-08-31T07:27:35;14.40;17.90
10304;DHT22;5197;48.152;8.590;2023-08-31T07:30:02;14.70;17.70
10304;DHT22;5197;48.152;8.590;2023-08-31T07:32:31;15.00;18.10
10304;DHT22;5197;48.152;8.590;2023-08-31T07:34:58;15.50;18.50
10304;DHT22;5197;48.152;8.590;2023-08-31T07:37:25;15.90;16.60
10304;DHT22;5197;48.152;8.590;2023-08-31T07:39:52;16.40;15.40
10304;DHT22;5197;48.152;8.590;2023-08-31T07:42:20;16.70;13.90
10304;DHT22;5197;48.152;8.590;2023-08-31T07:44:47;17.10;12.30
10304;DHT22;5197;48.152;8.590;2023-08-31T07:47:13;17.50;9.30
10304;DHT22;5197;48.152;8.590;2023-08-31T07:49:41;17.60;6.50
10304;DHT22;5197;48.152;8.590;2023-08-31T07:52:08;17.70;5.50
10304;DHT22;5197;48.152;8.590;2023-08-31T07:54:35;17.90;3.10
10304;DHT22;5197;48.152;8.590;2023-08-31T07:57:02;18.00;2.70
10304;DHT22;5197;48.152;8.590;2023-08-31T07:59:29;18.20;3.00
10304;DHT22;5197;48.152;8.590;2023-08-31T08:01:56;18.40;1.00
10304;DHT22;5197;48.152;8.590;2023-08-31T08:04:24;18.60;1.00
10304;DHT22;5197;48.152;8.590;2023-08-31T08:06:52;18.40;1.00
10304;DHT22;5197;48.152;8.590;2023-08-31T08:09:21;18.10;1.00
10304;DHT22;5197;48.152;8.590;2023-08-31T08:11:48;18.10;1.00
10304;DHT22;5197;48.152;8.590;2023-08-31T08:14:15;18.10;1.00
10304;DHT22;5197;48.152;8.590;2023-08-31T08:16:42;17.80;1.00
10304;DHT22;5197;48.152;8.590;2023-08-31T08:19:10;17.50;1.00
10304;DHT22;5197;48.152;8.590;2023-08-31T08:21:37;17.20;1.00
10304;DHT22;5197;48.152;8.590;2023-08-31T08:24:04;17.00;1.00
10304;DHT22;5197;48.152;8.590;2023-08-31T08:26:31;16.80;1.00
10304;DHT22;5197;48.152;8.590;2023-08-31T08:28:58;16.70;1.00
10304;DHT22;5197;48.152;8.590;2023-08-31T08:31:25;16.70;1.00
10304;DHT22;5197;48.152;8.590;2023-08-31T08:33:52;16.90;1.00
10304;DHT22;5197;48.152;8.590;2023-08-31T08:36:20;17.00;1.00
10304;DHT22;5197;48.152;8.590;2023-08-31T08:38:47;17.00;1.00
10304;DHT22;5197;48.152;8.590;2023-08-31T08:41:16;16.90;1.00
10304;DHT22;5197;48.152;8.590;2023-08-31T08:43:47;16.80;1.00
10304;DHT22;5197;48.152;8.590;2023-08-31T08:46:14;16.40;1.00
10304;DHT22;5197;48.152;8.590;2023-08-31T08:48:42;16.10;1.00
10304;DHT22;5197;48.152;8.590;2023-08-31T08:51:10;16.10;1.00
10304;DHT22;5197;48.152;8.590;2023-08-31T08:53:38;16.10;1.00
10304;DHT22;5197;48.152;8.590;2023-08-31T08:56:07;16.30;1.00
10304;DHT22;5197;48.152;8.590;2023-08-31T08:58:34;16.50;1.00
10304;DHT22;5197;48.152;8.590;2023-08-31T09:01:02;16.50;1.00
10304;DHT22;5197;48.152;8.590;2023-08-31T09:03:30;16.50;1.00
10304;DHT22;5197;48.152;8.590;2023-08-31T09:05:59;16.40;1.00
10304;DHT22;5197;48.152;8.590;2023-08-31T09:08:30;16.40;1.00
10304;DHT22;5197;48.152;8.590;2023-08-31T09:10:58;16.10;1.00
10304;DHT22;5197;48.152;8.590;2023-08-31T09:13:29;16.00;1.00
10304;DHT22;5197;48.152;8.590;2023-08-31T09:15:56;16.00;1.00
10304;DHT22;5197;48.152;8.590;2023-08-31T09:18:26;15.90;1.00
10304;DHT22;5197;48.152;8.590;2023-08-31T09:20:55;15.90;1.00
10304;DHT22;5197;48.152;8.590;2023-08-31T09:23:26;16.00;1.00
10304;DHT22;5197;48.152;8.590;2023-08-31T09:25:56;16.00;1.00
10304;DHT22;5197;48.152;8.590;2023-08-31T09:28:25;16.00;1.00
10304;DHT22;5197;48.152;8.590;2023-08-31T09:31:06;15.90;1.00
10304;DHT22;5197;48.152;8.590;2023-08-31T09:33:35;15.70;1.00
10304;DHT22;5197;48.152;8.590;2023-08-31T09:36:05;15.70;1.00
10304;DHT22;5197;48.152;8.590;2023-08-31T09:38:44;15.70;1.00
10304;DHT22;5197;48.152;8.590;2023-08-31T09:41:11;15.80;1.00
10304;DHT22;5197;48.152;8.590;2023-08-31T09:43:38;15.80;1.00
10304;DHT22;5197;48.152;8.590;2023-08-31T09:46:05;16.00;1.00
10304;DHT22;5197;48.152;8.590;2023-08-31T09:48:33;16.10;1.00
10304;DHT22;5197;48.152;8.590;2023-08-31T09:51:04;16.20;1.00
10304;DHT22;5197;48.152;8.590;2023-08-31T09:53:32;16.10;1.00
10304;DHT22;5197;48.152;8.590;2023-08-31T09:56:05;16.00;1.00
10304;DHT22;5197;48.152;8.590;2023-08-31T09:58:32;16.00;1.00
10304;DHT22;5197;48.152;8.590;2023-08-31T10:01:00;16.00;1.00
10304;DHT22;5197;48.152;8.590;2023-08-31T10:03:29;16.00;1.00
10304;DHT22;5197;48.152;8.590;2023-08-31T10:05:57;16.10;1.00
10304;DHT22;5197;48.152;8.590;2023-08-31T10:08:27;16.10;1.00
10304;DHT22;5197;48.152;8.590;2023-08-31T10:10:59;16.10;1.00
10304;DHT22;5197;48.152;8.590;2023-08-31T10:13:31;16.30;1.00
10304;DHT22;5197;48.152;8.590;2023-08-31T10:16:00;16.30;1.00
10304;DHT22;5197;48.152;8.590;2023-08-31T10:18:28;16.40;1.00
10304;DHT22;5197;48.152;8.590;2023-08-31T10:20:55;16.60;1.00
10304;DHT22;5197;48.152;8.590;2023-08-31T10:23:23;16.70;1.00
10304;DHT22;5197;48.152;8.590;2023-08-31T10:28:19;16.70;1.00
10304;DHT22;5197;48.152;8.590;2023-08-31T10:34:01;16.70;1.00
10304;DHT22;5197;48.152;8.590;2023-08-31T10:36:44;16.60;1.00
10304;DHT22;5197;48.152;8.590;2023-08-31T10:39:17;16.40;1.00
10304;DHT22;5197;48.152;8.590;2023-08-31T10:41:55;16.40;1.00
10304;DHT22;5197;48.152;8.590;2023-08-31T10:44:24;16.50;1.00
10304;DHT22;5197;48.152;8.590;2023-08-31T10:46:52;16.60;1.00
10304;DHT22;5197;48.152;8.590;2023-08-31T10:49:21;16.50;1.00
10304;DHT22;5197;48.152;8.590;2023-08-31T10:51:50;16.50;1.00
10304;DHT22;5197;48.152;8.590;2023-08-31T11:02:09;16.80;1.00
10304;DHT22;5197;48.152;8.590;2023-08-31T11:04:53;16.70;1.00
10304;DHT22;5197;48.152;8.590;2023-08-31T11:07:25;16.80;1.00
10304;DHT22;5197;48.152;8.590;2023-08-31T11:12:34;17.10;1.00
10304;DHT22;5197;48.152;8.590;2023-08-31T11:15:01;17.20;1.00
10304;DHT22;5197;48.152;8.590;2023-08-31T11:17:30;17.20;1.00
10304;DHT22;5197;48.152;8.590;2023-08-31T11:20:01;17.30;1.00
10304;DHT22;5197;48.152;8.590;2023-08-31T11:22:32;17.30;1.00
10304;DHT22;5197;48.152;8.590;2023-08-31T11:25:02;17.40;1.00
10304;DHT22;5197;48.152;8.590;2023-08-31T11:27:29;17.40;1.00
10304;DHT22;5197;48.152;8.590;2023-08-31T11:29:56;17.30;1.00
10304;DHT22;5197;48.152;8.590;2023-08-31T11:32:27;17.30;1.00
10304;DHT22;5197;48.152;8.590;2023-08-31T11:34:54;17.20;1.00
10304;DHT22;5197;48.152;8.590;2023-08-31T11:37:21;17.20;1.00
10304;DHT22;5197;48.152;8.590;2023-08-31T11:39:53;17.20;1.00
10304;DHT22;5197;48.152;8.590;2023-08-31T11:42:21;17.40;1.00
10304;DHT22;5197;48.152;8.590;2023-08-31T11:44:50;17.50;1.00
10304;DHT22;5197;48.152;8.590;2023-08-31T11:47:19;17.60;1.00
10304;DHT22;5197;48.152;8.590;2023-08-31T11:49:47;17.60;1.00
10304;DHT22;5197;48.152;8.590;2023-08-31T11:52:16;17.60;1.00
10304;DHT22;5197;48.152;8.590;2023-08-31T11:54:43;17.50;1.00
10304;DHT22;5197;48.152;8.590;2023-08-31T11:57:10;17.50;1.00
10304;DHT22;5197;48.152;8.590;2023-08-31T11:59:38;17.60;1.00
10304;DHT22;5197;48.152;8.590;2023-08-31T12:02:07;17.80;1.00
10304;DHT22;5197;48.152;8.590;2023-08-31T12:04:44;17.80;1.00
10304;DHT22;5197;48.152;8.590;2023-08-31T12:07:18;17.80;1.00
10304;DHT22;5197;48.152;8.590;2023-08-31T12:09:46;17.80;1.00
10304;DHT22;5197;48.152;8.590;2023-08-31T12:12:20;17.90;1.00
10304;DHT22;5197;48.152;8.590;2023-08-31T12:14:52;18.00;1.00
10304;DHT22;5197;48.152;8.590;2023-08-31T12:17:19;17.90;1.00
10304;DHT22;5197;48.152;8.590;2023-08-31T12:19:46;18.00;1.00
10304;DHT22;5197;48.152;8.590;2023-08-31T12:22:13;18.00;1.00
10304;DHT22;5197;48.152;8.590;2023-08-31T12:24:41;18.10;1.00
10304;DHT22;5197;48.152;8.590;2023-08-31T12:27:09;18.40;1.00
10304;DHT22;5197;48.152;8.590;2023-08-31T12:29:36;18.30;1.00
10304;DHT22;5197;48.152;8.590;2023-08-31T12:32:03;18.30;1.00
10304;DHT22;5197;48.152;8.590;2023-08-31T12:34:31;18.30;1.00
10304;DHT22;5197;48.152;8.590;2023-08-31T12:36:59;18.40;1.00
10304;DHT22;5197;48.152;8.590;2023-08-31T12:39:27;18.50;1.00
10304;DHT22;5197;48.152;8.590;2023-08-31T12:41:54;18.60;1.00
10304;DHT22;5197;48.152;8.590;2023-08-31T12:44:31;18.70;1.00
10304;DHT22;5197;48.152;8.590;2023-08-31T12:46:58;18.80;1.00
10304;DHT22;5197;48.152;8.590;2023-08-31T12:49:26;18.90;1.00
10304;DHT22;5197;48.152;8.590;2023-08-31T12:51:53;18.90;1.00
10304;DHT22;5197;48.152;8.590;2023-08-31T12:54:20;18.90;1.00
10304;DHT22;5197;48.152;8.590;2023-08-31T12:56:47;19.00;1.00
10304;DHT22;5197;48.152;8.590;2023-08-31T12:59:14;19.00;1.00
10304;DHT22;5197;48.152;8.590;2023-08-31T13:01:41;18.90;1.00
10304;DHT22;5197;48.152;8.590;2023-08-31T13:04:08;18.90;1.00
10304;DHT22;5197;48.152;8.590;2023-08-31T13:06:35;19.00;1.00
10304;DHT22;5197;48.152;8.590;2023-08-31T13:09:03;19.20;1.00
10304;DHT22;5197;48.152;8.590;2023-08-31T13:11:32;19.40;1.00
10304;DHT22;5197;48.152;8.590;2023-08-31T13:13:59;19.40;1.00
10304;DHT22;5197;48.152;8.590;2023-08-31T13:16:26;19.40;1.00
10304;DHT22;5197;48.152;8.590;2023-08-31T13:18:54;19.40;1.00
10304;DHT22;5197;48.152;8.590;2023-08-31T13:21:21;19.20;1.00
10304;DHT22;5197;48.152;8.590;2023-08-31T13:23:48;19.20;1.00
10304;DHT22;5197;48.152;8.590;2023-08-31T13:26:15;19.20;1.00
10304;DHT22;5197;48.152;8.590;2023-08-31T13:28:42;19.20;1.00
10304;DHT22;5197;48.152;8.590;2023-08-31T13:31:10;19.20;1.00
10304;DHT22;5197;48.152;8.590;2023-08-31T13:33:39;19.20;1.00
10304;DHT22;5197;48.152;8.590;2023-08-31T13:36:06;19.20;1.00
10304;DHT22;5197;48.152;8.590;2023-08-31T13:38:33;19.20;1.00
10304;DHT22;5197;48.152;8.590;2023-08-31T13:41:00;19.30;1.00
10304;DHT22;5197;48.152;8.590;2023-08-31T13:43:27;19.20;1.00
10304;DHT22;5197;48.152;8.590;2023-08-31T13:45:54;19.20;1.00
10304;DHT22;5197;48.152;8.590;2023-08-31T13:48:24;19.10;1.00
10304;DHT22;5197;48.152;8.590;2023-08-31T13:50:51;19.10;1.00
10304;DHT22;5197;48.152;8.590;2023-08-31T13:53:18;19.00;1.00
10304;DHT22;5197;48.152;8.590;2023-08-31T13:55:45;19.10;1.00
10304;DHT22;5197;48.152;8.590;2023-08-31T13:58:12;19.10;1.00
10304;DHT22;5197;48.152;8.590;2023-08-31T14:00:40;19.10;1.00
10304;DHT22;5197;48.152;8.590;2023-08-31T14:03:08;19.20;1.00
10304;DHT22;5197;48.152;8.590;2023-08-31T14:05:35;19.30;1.00
10304;DHT22;5197;48.152;8.590;2023-08-31T14:08:03;19.20;1.00
10304;DHT22;5197;48.152;8.590;2023-08-31T14:10:32;19.20;1.00
10304;DHT22;5197;48.152;8.590;2023-08-31T14:13:02;19.20;1.00
10304;DHT22;5197;48.152;8.590;2023-08-31T14:15:30;19.20;1.00
10304;DHT22;5197;48.152;8.590;2023-08-31T14:17:57;19.20;1.00
10304;DHT22;5197;48.152;8.590;2023-08-31T14:20:25;19.20;1.00
10304;DHT22;5197;48.152;8.590;2023-08-31T14:22:52;19.10;1.00
10304;DHT22;5197;48.152;8.590;2023-08-31T14:25:19;19.10;1.00
10304;DHT22;5197;48.152;8.590;2023-08-31T14:27:47;19.10;1.00
10304;DHT22;5197;48.152;8.590;2023-08-31T14:30:15;19.10;1.00
10304;DHT22;5197;48.152;8.590;2023-08-31T14:32:42;19.00;1.00
10304;DHT22;5197;48.152;8.590;2023-08-31T14:35:09;18.90;1.00
10304;DHT22;5197;48.152;8.590;2023-08-31T14:37:37;18.90;1.00
10304;DHT22;5197;48.152;8.590;2023-08-31T14:40:04;18.90;1.00
10304;DHT22;5197;48.152;8.590;2023-08-31T14:42:35;19.00;1.00
10304;DHT22;5197;48.152;8.590;2023-08-31T14:45:03;19.00;1.00
10304;DHT22;5197;48.152;8.590;2023-08-31T14:47:30;19.00;1.00
10304;DHT22;5197;48.152;8.590;2023-08-31T14:49:57;18.90;1.00
10304;DHT22;5197;48.152;8.590;2023-08-31T14:52:24;18.90;1.00
10304;DHT22;5197;48.152;8.590;2023-08-31T14:54:51;18.90;1.00
10304;DHT22;5197;48.152;8.590;2023-08-31T14:57:20;18.90;1.00
10304;DHT22;5197;48.152;8.590;2023-08-31T14:59:48;19.00;1.00
10304;DHT22;5197;48.152;8.590;2023-08-31T15:02:18;19.10;1.00
10304;DHT22;5197;48.152;8.590;2023-08-31T15:04:48;19.10;1.00
10304;DHT22;5197;48.152;8.590;2023-08-31T15:07:19;19.10;1.00
10304;DHT22;5197;48.152;8.590;2023-08-31T15:09:46;19.10;1.00
10304;DHT22;5197;48.152;8.590;2023-08-31T15:12:13;19.00;1.00
10304;DHT22;5197;48.152;8.590;2023-08-31T15:14:40;19.10;1.00
10304;DHT22;5197;48.152;8.590;2023-08-31T15:17:07;19.20;1.00
10304;DHT22;5197;48.152;8.590;2023-08-31T15:19:34;19.20;1.00
10304;DHT22;5197;48.152;8.590;2023-08-31T15:22:01;19.30;1.00
10304;DHT22;5197;48.152;8.590;2023-08-31T15:24:30;19.30;1.00
10304;DHT22;5197;48.152;8.590;2023-08-31T15:26:59;19.30;1.00
10304;DHT22;5197;48.152;8.590;2023-08-31T15:29:26;19.30;1.00
10304;DHT22;5197;48.152;8.590;2023-08-31T15:31:54;19.30;1.00
10304;DHT22;5197;48.152;8.590;2023-08-31T15:34:21;19.20;1.00
10304;DHT22;5197;48.152;8.590;2023-08-31T15:36:49;19.10;1.00
10304;DHT22;5197;48.152;8.590;2023-08-31T15:39:16;18.90;1.00
10304;DHT22;5197;48.152;8.590;2023-08-31T15:41:43;18.80;1.00
10304;DHT22;5197;48.152;8.590;2023-08-31T15:44:10;18.70;1.00
10304;DHT22;5197;48.152;8.590;2023-08-31T15:46:37;18.70;1.00
10304;DHT22;5197;48.152;8.590;2023-08-31T15:49:05;18.60;1.00
10304;DHT22;5197;48.152;8.590;2023-08-31T15:51:32;18.60;1.00
10304;DHT22;5197;48.152;8.590;2023-08-31T15:54:00;18.60;1.00
10304;DHT22;5197;48.152;8.590;2023-08-31T15:56:32;18.60;1.00
10304;DHT22;5197;48.152;8.590;2023-08-31T15:58:59;18.60;1.00
10304;DHT22;5197;48.152;8.590;2023-08-31T16:01:26;18.50;1.00
10304;DHT22;5197;48.152;8.590;2023-08-31T16:03:54;18.50;1.00
10304;DHT22;5197;48.152;8.590;2023-08-31T16:06:21;18.50;1.00
10304;DHT22;5197;48.152;8.590;2023-08-31T16:08:49;18.50;1.00
10304;DHT22;5197;48.152;8.590;2023-08-31T16:11:16;18.50;1.00
10304;DHT22;5197;48.152;8.590;2023-08-31T16:13:43;18.50;1.00
10304;DHT22;5197;48.152;8.590;2023-08-31T16:16:10;18.40;1.00
10304;DHT22;5197;48.152;8.590;2023-08-31T16:18:37;18.40;1.00
10304;DHT22;5197;48.152;8.590;2023-08-31T16:21:04;18.40;1.00
10304;DHT22;5197;48.152;8.590;2023-08-31T16:23:31;18.30;1.00